Time;durP1;ratioP1;P1;durP2;ratioP2;P2;SDS_P1;SDS_P2;PMS_P1;PMS_P2;Temp;Humidity;BMP_temperature;BMP_pressure;BME280_temperature;BME280_humidity;BME280_pressure;Samples;Min_cycle;Max_cycle;Signal;HPM_P1;HPM_P2
2021/07/16 00:00:30;;;;;;;9.77;3.22;;;;;;;15.31;83.60;102384.31;5015677;28;20091;-82
2021/07/16 00:02:56;;;;;;;7.03;3.05;;;;;;;15.44;83.60;102405.50;5020046;28;20025;-82
2021/07/16 00:05:22;;;;;;;5.40;2.70;;;;;;;15.43;83.08;102403.81;5018493;28;20041;-82
2021/07/16 00:07:48;;;;;;;7.25;3.40;;;;;;;15.38;83.37;102399.75;5020453;28;20025;-81
2021/07/16 00:10:17;;;;;;;6.93;3.45;;;;;;;15.31;83.66;102396.00;5014507;28;20381;-82
2021/07/16 00:12:43;;;;;;;8.75;3.58;;;;;;;15.21;84.12;102376.34;5002559;28;20052;-82
2021/07/16 00:15:10;;;;;;;7.22;3.58;;;;;;;15.25;84.54;102385.84;5018757;28;20029;-82
2021/07/16 00:17:36;;;;;;;12.60;4.20;;;;;;;15.23;84.14;102385.16;4998478;28;20201;-82
2021/07/16 00:20:02;;;;;;;8.82;3.20;;;;;;;15.25;84.87;102385.84;5008747;28;20484;-82
2021/07/16 00:22:27;;;;;;;7.72;3.50;;;;;;;15.27;84.75;102397.38;5017532;28;20033;-82
2021/07/16 00:24:53;;;;;;;8.77;3.70;;;;;;;15.24;85.29;102388.69;5016722;28;20053;-82
2021/07/16 00:27:18;;;;;;;8.02;3.33;;;;;;;15.23;85.09;102401.41;5017734;28;20026;-81
2021/07/16 00:29:44;;;;;;;7.15;3.60;;;;;;;15.20;84.95;102380.06;5020294;28;20167;-82
2021/07/16 00:32:09;;;;;;;8.43;3.67;;;;;;;15.26;85.20;102386.69;5020469;28;20030;-82
2021/07/16 00:34:35;;;;;;;8.35;3.72;;;;;;;15.18;84.77;102385.66;5006044;28;20060;-82
2021/07/16 00:37:00;;;;;;;8.32;3.67;;;;;;;15.15;85.11;102394.09;5020847;28;20029;-82
2021/07/16 00:39:26;;;;;;;9.95;4.10;;;;;;;15.10;85.86;102392.91;5018323;28;20488;-82
2021/07/16 00:41:51;;;;;;;7.88;3.42;;;;;;;15.05;85.82;102379.84;5015774;28;20041;-82
2021/07/16 00:44:21;;;;;;;9.75;3.97;;;;;;;15.04;86.08;102378.19;5022705;28;20045;-82
2021/07/16 00:46:47;;;;;;;11.70;4.60;;;;;;;15.11;86.13;102389.19;5025733;28;20056;-82
2021/07/16 00:49:13;;;;;;;11.95;4.78;;;;;;;15.14;86.29;102392.44;5014713;28;20030;-81
2021/07/16 00:51:40;;;;;;;14.18;4.55;;;;;;;15.09;86.05;102377.69;5015440;28;20076;-82
2021/07/16 00:54:05;;;;;;;12.70;4.63;;;;;;;15.06;86.26;102383.44;5000785;28;20033;-81
2021/07/16 00:56:31;;;;;;;9.88;4.25;;;;;;;15.09;86.52;102402.06;5005630;28;20085;-81
2021/07/16 00:58:56;;;;;;;11.18;4.72;;;;;;;15.06;86.69;102397.00;5017200;28;20052;-81
2021/07/16 01:01:22;;;;;;;9.60;4.43;;;;;;;15.13;86.95;102395.28;5013139;28;20431;-82
2021/07/16 01:03:49;;;;;;;14.27;4.70;;;;;;;15.17;87.00;102392.09;5014142;28;20033;-82
2021/07/16 01:06:15;;;;;;;11.82;4.40;;;;;;;15.13;86.71;102379.88;4996918;28;20093;-82
2021/07/16 01:08:40;;;;;;;12.40;4.70;;;;;;;15.19;86.48;102389.22;5019403;28;20128;-82
2021/07/16 01:11:06;;;;;;;13.95;4.43;;;;;;;15.27;86.44;102397.38;5018954;28;20045;-81
2021/07/16 01:13:31;;;;;;;10.90;4.88;;;;;;;15.29;86.50;102405.31;4998818;28;20030;-82
2021/07/16 01:15:57;;;;;;;10.52;3.70;;;;;;;15.27;86.46;102396.50;5015221;28;20029;-82
2021/07/16 01:18:22;;;;;;;12.23;4.57;;;;;;;15.22;86.35;102399.72;5015452;28;20025;-82
2021/07/16 01:20:48;;;;;;;10.40;4.57;;;;;;;15.18;86.32;102396.47;4998909;28;20021;-82
2021/07/16 01:23:24;;;;;;;11.48;4.55;;;;;;;15.04;86.85;102386.31;4999882;28;20055;-82
2021/07/16 01:25:54;;;;;;;11.75;5.05;;;;;;;15.07;87.56;102393.25;5018148;28;20025;-82
2021/07/16 01:28:19;;;;;;;15.10;5.60;;;;;;;15.08;87.60;102398.53;5016705;28;20523;-82
2021/07/16 01:30:46;;;;;;;13.65;4.80;;;;;;;15.07;87.29;102401.38;5017209;28;20037;-82
2021/07/16 01:33:13;;;;;;;10.60;5.15;;;;;;;15.00;87.46;102394.91;5013599;28;20038;-82
2021/07/16 01:35:39;;;;;;;10.10;3.50;;;;;;;14.95;87.74;102388.16;5014748;28;20141;-82
2021/07/16 01:38:05;;;;;;;11.20;3.63;;;;;;;14.99;88.13;102393.22;5011157;28;20385;-81
2021/07/16 01:40:36;;;;;;;6.15;3.25;;;;;;;15.06;87.92;102407.81;5017969;28;20017;-81
2021/07/16 01:43:02;;;;;;;6.60;2.97;;;;;;;14.98;87.78;102392.41;5013760;28;20041;-81
2021/07/16 01:45:33;;;;;;;10.68;3.10;;;;;;;15.01;87.44;102404.75;5015863;28;20025;-81
2021/07/16 01:48:17;;;;;;;9.98;3.30;;;;;;;14.98;88.32;102400.53;5010251;28;20068;-82
2021/07/16 01:50:47;;;;;;;9.45;3.08;;;;;;;15.02;87.93;102403.72;5001269;28;20551;-82
2021/07/16 01:53:15;;;;;;;8.38;3.30;;;;;;;15.01;88.45;102407.47;5002230;28;20028;-82
2021/07/16 01:55:41;;;;;;;5.85;2.58;;;;;;;14.92;88.65;102393.91;5011417;28;20026;-81
2021/07/16 01:58:11;;;;;;;5.38;2.47;;;;;;;14.96;88.47;102399.81;5018317;28;20121;-82
2021/07/16 02:00:39;;;;;;;4.30;2.47;;;;;;;14.94;88.49;102389.16;4995988;28;20021;-81
2021/07/16 02:03:07;;;;;;;4.30;2.00;;;;;;;14.90;88.97;102401.34;5018168;28;20021;-82
2021/07/16 02:05:33;;;;;;;3.35;1.88;;;;;;;14.81;89.20;102396.03;5019590;28;20029;-82
2021/07/16 02:08:01;;;;;;;3.75;1.80;;;;;;;14.76;88.58;102385.69;5015272;28;20049;-82
2021/07/16 02:10:27;;;;;;;3.78;2.03;;;;;;;14.87;88.47;102396.25;5019103;28;20431;-82
2021/07/16 02:12:54;;;;;;;3.72;1.77;;;;;;;14.95;88.32;102400.81;5018164;28;20030;-81
2021/07/16 02:15:23;;;;;;;4.18;1.75;;;;;;;14.97;87.92;102397.97;4998379;28;20038;-82
2021/07/16 02:17:48;;;;;;;4.38;1.70;;;;;;;14.94;87.96;102399.97;5013785;28;20036;-82
2021/07/16 02:20:18;;;;;;;3.83;1.80;;;;;;;14.89;88.35;102394.22;5002263;28;20021;-81
2021/07/16 02:22:43;;;;;;;3.78;1.80;;;;;;;14.94;88.02;102393.72;5017691;28;20619;-82
2021/07/16 02:25:09;;;;;;;4.22;1.75;;;;;;;14.90;87.88;102381.53;5012505;28;20029;-82
2021/07/16 02:27:34;;;;;;;3.83;1.80;;;;;;;14.94;87.86;102386.44;5028144;28;20511;-82
2021/07/16 02:29:59;;;;;;;4.30;2.03;;;;;;;14.95;88.03;102401.69;5014838;28;20029;-82
2021/07/16 02:32:25;;;;;;;6.22;2.20;;;;;;;14.94;88.29;102393.72;5002179;28;20777;-81
2021/07/16 02:34:50;;;;;;;7.20;2.10;;;;;;;14.93;88.29;102389.31;5018485;28;20029;-82
2021/07/16 02:37:16;;;;;;;6.60;2.38;;;;;;;14.87;88.16;102382.72;5017615;28;20029;-82
2021/07/16 02:39:41;;;;;;;5.22;1.88;;;;;;;14.88;88.60;102376.28;5027232;28;20113;-82
2021/07/16 02:42:07;;;;;;;8.65;2.10;;;;;;;14.91;88.22;102381.34;5015176;28;20112;-82
2021/07/16 02:44:32;;;;;;;7.05;2.10;;;;;;;14.91;88.53;102378.66;5015031;28;20060;-82
2021/07/16 02:46:57;;;;;;;3.65;1.88;;;;;;;14.95;88.55;102393.56;5015940;28;20704;-82
2021/07/16 02:49:23;;;;;;;5.50;2.42;;;;;;;14.87;88.30;102387.25;5018736;28;20141;-82
2021/07/16 02:51:48;;;;;;;14.38;2.40;;;;;;;14.82;88.32;102384.19;4997701;28;20060;-82
2021/07/16 02:54:14;;;;;;;4.13;1.88;;;;;;;14.78;88.56;102386.38;5027235;28;20113;-82
2021/07/16 02:56:39;;;;;;;9.07;1.90;;;;;;;14.76;88.59;102382.16;5018109;28;20022;-82
2021/07/16 02:59:06;;;;;;;6.53;2.10;;;;;;;14.71;89.06;102377.22;5015564;28;20045;-82
2021/07/16 03:01:32;;;;;;;4.18;1.98;;;;;;;14.77;88.93;102395.53;4997969;28;20050;-82
2021/07/16 03:03:57;;;;;;;5.80;2.13;;;;;;;14.82;89.16;102390.47;5015407;28;20115;-81
2021/07/16 03:06:23;;;;;;;7.53;2.00;;;;;;;14.88;88.86;102397.09;5014489;28;20030;-82
2021/07/16 03:08:48;;;;;;;4.50;2.10;;;;;;;14.74;89.15;102376.91;5018435;28;20026;-82
2021/07/16 03:11:14;;;;;;;4.13;2.03;;;;;;;14.71;89.34;102386.22;5000844;28;20526;-81
2021/07/16 03:13:39;;;;;;;4.35;2.20;;;;;;;14.65;89.44;102375.19;5014117;28;20535;-82
2021/07/16 03:16:04;;;;;;;6.47;2.20;;;;;;;14.57;89.80;102381.41;5015571;28;20077;-82
2021/07/16 03:18:30;;;;;;;13.82;2.80;;;;;;;14.59;89.45;102378.53;5013696;28;20038;-82
2021/07/16 03:20:55;;;;;;;7.82;2.50;;;;;;;14.64;89.29;102385.16;5016888;28;20043;-82
2021/07/16 03:23:21;;;;;;;10.75;2.45;;;;;;;14.63;89.31;102382.59;5016307;28;20490;-81
2021/07/16 03:25:47;;;;;;;3.20;1.80;;;;;;;14.66;89.80;102379.56;5006904;28;20026;-81
2021/07/16 03:28:12;;;;;;;15.07;2.22;;;;;;;14.44;89.08;102349.34;4992967;28;20479;-81
2021/07/16 03:30:40;;;;;;;4.03;1.77;;;;;;;14.63;89.78;102374.47;5009034;28;20029;-81
2021/07/16 03:33:06;;;;;;;5.28;2.50;;;;;;;14.72;89.42;102387.06;5008630;28;20080;-82
2021/07/16 03:35:31;;;;;;;8.13;2.20;;;;;;;14.68;89.59;102386.50;5008438;28;20064;-81
2021/07/16 03:37:57;;;;;;;5.95;2.20;;;;;;;14.70;89.49;102384.50;5000066;28;20034;-81
2021/07/16 03:40:29;;;;;;;14.65;2.30;;;;;;;14.69;89.08;102390.09;4995919;28;20080;-82
2021/07/16 03:42:56;;;;;;;29.35;2.88;;;;;;;14.65;88.97;102389.56;5012559;28;20028;-82
2021/07/16 03:45:22;;;;;;;13.07;2.03;;;;;;;14.57;89.65;102391.38;5011179;28;20025;-81
2021/07/16 03:47:48;;;;;;;7.95;1.77;;;;;;;14.50;90.19;102396.56;4992305;28;20357;-82
2021/07/16 03:50:16;;;;;;;4.63;1.77;;;;;;;14.41;90.51;102381.28;5010929;28;20030;-81
2021/07/16 03:52:41;;;;;;;4.03;1.50;;;;;;;14.51;90.79;102384.72;5004997;28;20048;-82
2021/07/16 03:55:09;;;;;;;6.03;1.80;;;;;;;14.59;89.69;102392.06;5010596;28;20385;-82
2021/07/16 03:57:35;;;;;;;19.52;2.78;;;;;;;14.54;89.85;102389.84;5020064;28;20022;-81
2021/07/16 04:00:05;;;;;;;46.03;5.43;;;;;;;14.49;89.78;102401.13;5020619;28;20036;-82
2021/07/16 04:02:31;;;;;;;16.42;2.72;;;;;;;14.35;89.96;102379.25;5011490;28;20037;-82
2021/07/16 04:04:57;;;;;;;11.68;2.40;;;;;;;14.48;89.92;102394.03;5010658;28;20030;-82
2021/07/16 04:07:30;;;;;;;5.15;1.77;;;;;;;14.42;90.39;102397.38;4989727;28;20109;-82
2021/07/16 04:09:56;;;;;;;15.30;2.55;;;;;;;14.43;90.40;102395.53;5012962;28;20033;-81
2021/07/16 04:12:22;;;;;;;8.45;2.20;;;;;;;14.40;90.41;102388.56;4995069;28;20385;-82
2021/07/16 04:14:49;;;;;;;6.13;1.90;;;;;;;14.45;90.20;102388.94;5011031;28;20049;-81
2021/07/16 04:17:17;;;;;;;17.17;2.63;;;;;;;14.50;90.13;102402.84;5005464;28;20084;-82
2021/07/16 04:19:43;;;;;;;9.20;2.38;;;;;;;14.44;90.08;102381.81;5007070;28;20026;-81
2021/07/16 04:22:10;;;;;;;10.43;2.17;;;;;;;14.51;89.92;102390.16;5011315;28;20033;-82
2021/07/16 04:24:37;;;;;;;10.93;2.00;;;;;;;14.57;89.94;102402.22;5008412;28;20091;-81
2021/07/16 04:27:03;;;;;;;13.85;1.75;;;;;;;14.46;89.77;102404.16;5009554;28;20149;-82
2021/07/16 04:29:29;;;;;;;10.35;2.40;;;;;;;14.29;90.43;102397.81;4995186;28;20608;-83
2021/07/16 04:31:54;;;;;;;4.70;1.80;;;;;;;14.21;91.17;102378.84;4997048;28;20168;-79
2021/07/16 04:34:20;;;;;;;10.93;1.95;;;;;;;14.39;91.05;102404.97;5010207;28;20030;-81
2021/07/16 04:36:46;;;;;;;9.00;2.03;;;;;;;14.36;90.56;102402.56;5012865;28;20120;-80
2021/07/16 04:39:12;;;;;;;4.07;1.52;;;;;;;14.43;90.80;102409.06;5013715;28;20053;-83
2021/07/16 04:41:38;;;;;;;5.93;1.80;;;;;;;14.46;90.48;102412.28;4997706;28;20385;-80
2021/07/16 04:44:04;;;;;;;6.03;1.88;;;;;;;14.41;90.34;102397.53;5007261;28;20038;-80
2021/07/16 04:46:29;;;;;;;8.27;1.60;;;;;;;14.34;91.03;102399.19;5008540;28;20037;-79
2021/07/16 04:48:57;;;;;;;6.07;1.60;;;;;;;14.32;91.25;102401.22;5018237;28;20884;-81
2021/07/16 04:51:28;;;;;;;7.20;1.48;;;;;;;14.26;91.50;102406.25;5011437;28;20022;-81
2021/07/16 04:53:54;;;;;;;9.52;1.67;;;;;;;14.22;91.63;102412.13;5022966;28;20022;-82
2021/07/16 04:56:20;;;;;;;6.88;1.30;;;;;;;14.13;91.86;102396.84;5012895;28;20025;-81
2021/07/16 04:58:46;;;;;;;6.50;1.40;;;;;;;14.18;91.96;102391.81;5013154;28;20543;-79
2021/07/16 05:01:12;;;;;;;7.78;1.60;;;;;;;14.26;91.35;102397.25;5012063;28;20030;-82
2021/07/16 05:03:37;;;;;;;3.55;1.40;;;;;;;14.14;90.99;102385.03;4998201;28;20057;-82
2021/07/16 05:06:02;;;;;;;3.50;1.17;;;;;;;14.32;90.77;102402.06;5012429;28;20446;-81
2021/07/16 05:08:29;;;;;;;6.10;1.42;;;;;;;14.40;90.21;102409.38;5015176;28;20029;-81
2021/07/16 05:10:55;;;;;;;7.03;1.40;;;;;;;14.35;89.64;102411.72;5015238;28;20088;-81
2021/07/16 05:13:20;;;;;;;2.83;1.40;;;;;;;14.33;89.96;102409.16;5010887;28;20475;-81
2021/07/16 05:15:46;;;;;;;5.97;1.30;;;;;;;14.27;89.89;102410.66;5033518;28;20033;-82
2021/07/16 05:18:11;;;;;;;4.40;1.20;;;;;;;14.25;90.00;102422.63;5015179;28;20033;-81
2021/07/16 05:20:36;;;;;;;5.38;1.20;;;;;;;14.21;90.06;102421.25;4995882;28;20017;-82
2021/07/16 05:23:02;;;;;;;3.53;0.80;;;;;;;14.15;89.73;102416.47;5028818;28;20068;-81
2021/07/16 05:25:27;;;;;;;2.58;1.05;;;;;;;14.14;90.24;102407.53;5017621;28;20049;-82
2021/07/16 05:27:53;;;;;;;4.15;0.80;;;;;;;14.19;90.17;102424.13;5001267;28;20026;-82
2021/07/16 05:30:18;;;;;;;2.38;0.90;;;;;;;14.26;89.62;102425.19;5020478;28;20057;-81
2021/07/16 05:32:44;;;;;;;2.20;1.00;;;;;;;14.25;89.70;102422.63;5018425;28;20129;-82
2021/07/16 05:35:10;;;;;;;1.60;0.70;;;;;;;14.25;89.87;102431.59;5020740;28;20041;-82
2021/07/16 05:37:35;;;;;;;3.50;1.02;;;;;;;14.13;89.92;102424.78;5015132;28;20041;-82
2021/07/16 05:40:01;;;;;;;5.97;0.82;;;;;;;14.18;89.05;102437.81;5009756;28;20102;-82
2021/07/16 05:42:26;;;;;;;10.10;0.93;;;;;;;14.05;88.98;102428.25;5013179;28;20026;-82
2021/07/16 05:44:52;;;;;;;17.13;1.50;;;;;;;14.06;89.31;102440.78;5014282;28;20093;-82
2021/07/16 05:47:17;;;;;;;4.55;0.90;;;;;;;14.03;89.59;102435.69;5000908;28;20141;-82
2021/07/16 05:49:43;;;;;;;7.40;0.98;;;;;;;14.08;90.03;102437.91;5010764;28;20102;-81
2021/07/16 05:52:08;;;;;;;1.98;0.90;;;;;;;14.15;90.29;102449.78;5016530;28;20103;-81
2021/07/16 05:54:34;;;;;;;1.45;0.85;;;;;;;14.13;90.03;102437.44;5001323;28;20030;-82
2021/07/16 05:56:59;;;;;;;2.35;0.70;;;;;;;14.28;89.65;102449.38;5016496;28;20030;-82
2021/07/16 05:59:25;;;;;;;4.78;1.00;;;;;;;14.32;89.69;102450.75;5016098;28;20027;-82
2021/07/16 06:01:50;;;;;;;2.35;0.93;;;;;;;14.37;89.61;102458.38;5011771;28;20109;-81
2021/07/16 06:04:16;;;;;;;7.70;1.20;;;;;;;14.42;89.37;102456.06;5010688;28;20431;-82
2021/07/16 06:06:41;;;;;;;1.60;0.85;;;;;;;14.36;89.50;102454.00;4992142;28;21321;-82
2021/07/16 06:09:07;;;;;;;3.70;1.17;;;;;;;14.33;90.04;102457.88;5008256;28;20087;-82
2021/07/16 06:11:33;;;;;;;3.50;0.95;;;;;;;14.40;90.19;102464.34;5011751;28;20033;-82
2021/07/16 06:14:00;;;;;;;5.75;0.80;;;;;;;14.22;90.21;102440.03;5012608;28;20053;-81
2021/07/16 06:16:25;;;;;;;1.80;0.70;;;;;;;14.28;90.54;102460.19;4999062;28;20030;-82
2021/07/16 06:18:51;;;;;;;1.90;0.77;;;;;;;14.30;90.65;102464.44;5014993;28;20554;-81
2021/07/16 06:21:16;;;;;;;8.15;1.10;;;;;;;14.44;90.55;102475.69;5017058;28;20026;-81
2021/07/16 06:23:42;;;;;;;5.95;0.85;;;;;;;14.46;90.46;102474.53;5014086;28;20033;-82
2021/07/16 06:26:07;;;;;;;1.42;0.70;;;;;;;14.60;90.34;102474.97;5011362;28;20084;-81
2021/07/16 06:28:32;;;;;;;5.40;0.73;;;;;;;14.64;90.16;102471.78;5027735;28;20029;-82
2021/07/16 06:30:58;;;;;;;2.78;0.93;;;;;;;14.63;90.19;102458.41;5016465;28;20418;-81
2021/07/16 06:33:23;;;;;;;1.70;0.93;;;;;;;14.79;89.82;102479.31;5018085;28;20038;-82
2021/07/16 06:35:48;;;;;;;4.40;0.70;;;;;;;14.73;89.57;102461.84;5017277;28;20034;-82
2021/07/16 06:38:14;;;;;;;6.65;0.90;;;;;;;14.83;89.20;102478.81;5019030;28;20088;-83
2021/07/16 06:40:39;;;;;;;4.25;1.00;;;;;;;14.86;88.56;102469.53;5017704;28;20456;-82
2021/07/16 06:43:10;;;;;;;2.25;0.75;;;;;;;15.08;88.20;102476.22;5013066;28;20029;-79
2021/07/16 06:45:37;;;;;;;1.75;0.70;;;;;;;15.14;87.81;102473.72;5013352;28;20061;-78
2021/07/16 06:48:04;;;;;;;1.90;1.00;;;;;;;15.10;88.03;102466.06;5028090;28;20480;-83
2021/07/16 06:50:30;;;;;;;1.35;0.75;;;;;;;15.16;87.98;102474.41;4996936;28;20408;-84
2021/07/16 06:52:55;;;;;;;2.63;0.70;;;;;;;15.29;87.32;102476.63;5014131;28;20030;-83
2021/07/16 06:55:20;;;;;;;0.90;0.60;;;;;;;15.27;86.63;102462.41;5009475;28;20026;-83
2021/07/16 06:57:46;;;;;;;2.53;0.82;;;;;;;15.07;86.88;102458.28;4995179;28;20028;-83
2021/07/16 07:00:12;;;;;;;2.40;0.70;;;;;;;15.21;86.91;102478.47;4996747;28;20056;-82
2021/07/16 07:02:37;;;;;;;1.70;0.95;;;;;;;15.33;86.55;102485.28;5014778;28;20630;-82
2021/07/16 07:05:04;;;;;;;2.03;0.70;;;;;;;15.35;86.89;102488.69;4998609;28;20132;-82
2021/07/16 07:07:30;;;;;;;2.42;0.70;;;;;;;15.32;86.83;102475.44;5013089;28;20076;-84
2021/07/16 07:09:55;;;;;;;2.05;0.80;;;;;;;15.36;87.08;102480.38;5014105;28;20030;-83
2021/07/16 07:12:20;;;;;;;2.55;0.88;;;;;;;15.37;87.07;102478.50;5017699;28;20105;-78
2021/07/16 07:14:47;;;;;;;2.08;0.85;;;;;;;15.46;86.62;102474.81;5019415;28;20056;-82
2021/07/16 07:17:13;;;;;;;1.67;0.80;;;;;;;15.43;86.69;102483.28;5019992;28;20472;-82
2021/07/16 07:19:38;;;;;;;3.03;0.93;;;;;;;15.29;87.20;102484.75;5017289;28;20034;-80
2021/07/16 07:22:04;;;;;;;1.70;0.88;;;;;;;15.32;87.57;102486.28;4993770;28;20026;-81
2021/07/16 07:24:29;;;;;;;2.42;0.60;;;;;;;15.39;87.21;102503.59;5012739;28;20062;-81
2021/07/16 07:26:57;;;;;;;1.50;0.80;;;;;;;15.34;87.16;102489.69;4998094;28;20072;-81
2021/07/16 07:29:26;;;;;;;4.43;0.80;;;;;;;15.36;87.33;102493.94;5011206;28;20091;-80
2021/07/16 07:31:51;;;;;;;5.13;1.05;;;;;;;15.43;87.42;102490.53;5011979;28;20025;-81
2021/07/16 07:34:17;;;;;;;9.73;1.08;;;;;;;15.46;87.19;102495.66;5016905;28;20037;-80
2021/07/16 07:36:45;;;;;;;4.25;0.88;;;;;;;15.39;86.88;102499.00;5006603;28;20095;-81
2021/07/16 07:39:10;;;;;;;5.50;1.05;;;;;;;15.28;87.34;102491.19;5008974;28;20125;-80
2021/07/16 07:41:36;;;;;;;8.52;1.20;;;;;;;15.36;87.52;102495.78;4996790;28;21521;-81
2021/07/16 07:44:01;;;;;;;3.63;0.85;;;;;;;15.41;87.21;102501.56;5007192;28;20037;-81
2021/07/16 07:46:27;;;;;;;5.40;1.13;;;;;;;15.45;87.07;102508.34;5010789;28;20510;-81
2021/07/16 07:48:52;;;;;;;2.25;1.08;;;;;;;15.48;86.40;102505.31;4998524;28;20030;-80
2021/07/16 07:51:18;;;;;;;4.93;1.02;;;;;;;15.63;85.97;102515.50;5013755;28;20044;-80
2021/07/16 07:53:43;;;;;;;3.13;1.15;;;;;;;15.65;86.23;102506.19;5016031;28;20017;-80
2021/07/16 07:56:09;;;;;;;6.32;1.00;;;;;;;15.72;85.74;102499.13;5013932;28;20068;-80
2021/07/16 07:58:34;;;;;;;2.53;0.90;;;;;;;15.91;85.65;102514.25;5011407;28;20079;-80
2021/07/16 08:01:00;;;;;;;1.83;0.90;;;;;;;16.04;85.66;102519.16;5015045;28;20108;-81
2021/07/16 08:03:25;;;;;;;1.88;1.00;;;;;;;16.18;85.39;102504.06;5006872;28;20071;-82
2021/07/16 08:05:51;;;;;;;1.90;1.10;;;;;;;16.41;84.81;102515.09;4992297;28;20484;-81
2021/07/16 08:08:17;;;;;;;2.45;1.30;;;;;;;16.53;84.87;102523.72;5009366;28;20560;-81
2021/07/16 08:10:42;;;;;;;2.00;0.95;;;;;;;16.55;84.48;102510.81;5011900;28;20075;-81
2021/07/16 08:13:08;;;;;;;2.20;1.15;;;;;;;16.69;83.92;102518.25;5012352;28;20028;-82
2021/07/16 08:15:34;;;;;;;2.33;1.02;;;;;;;16.68;83.16;102517.41;5008283;28;20095;-81
2021/07/16 08:17:59;;;;;;;4.10;1.55;;;;;;;16.77;83.00;102507.38;5009667;28;20030;-81
2021/07/16 08:20:25;;;;;;;1.85;1.02;;;;;;;16.86;82.28;102524.53;5010189;28;20025;-80
2021/07/16 08:22:50;;;;;;;3.53;1.20;;;;;;;16.71;82.84;102521.63;5009430;28;20444;-81
2021/07/16 08:25:16;;;;;;;1.98;0.93;;;;;;;16.48;83.51;102525.09;5010018;28;20050;-80
2021/07/16 08:27:42;;;;;;;1.85;1.05;;;;;;;16.44;84.47;102528.31;5011487;28;20037;-80
2021/07/16 08:30:08;;;;;;;2.10;1.20;;;;;;;16.62;84.12;102518.09;5011257;28;20034;-81
2021/07/16 08:32:34;;;;;;;2.45;1.42;;;;;;;16.78;83.68;102522.69;5022001;28;20417;-82
2021/07/16 08:35:00;;;;;;;1.98;1.17;;;;;;;17.06;82.57;102514.09;5015572;28;20496;-81
2021/07/16 08:37:25;;;;;;;1.80;1.13;;;;;;;17.35;82.08;102513.44;5012244;28;20689;-81
2021/07/16 08:39:51;;;;;;;2.05;1.33;;;;;;;17.49;81.35;102503.66;5008176;28;20034;-81
2021/07/16 08:42:16;;;;;;;1.75;1.15;;;;;;;17.75;80.09;102504.19;5009632;28;20032;-82
2021/07/16 08:44:46;;;;;;;1.90;1.20;;;;;;;18.01;78.68;102506.56;5008668;28;20489;-81
2021/07/16 08:47:12;;;;;;;1.77;1.20;;;;;;;18.45;77.10;102511.28;5010727;28;20048;-81
2021/07/16 08:49:39;;;;;;;2.40;1.45;;;;;;;18.72;76.05;102517.13;5018214;28;20030;-81
2021/07/16 08:52:06;;;;;;;2.50;1.50;;;;;;;18.84;75.52;102510.22;5014439;28;20022;-81
2021/07/16 08:54:32;;;;;;;3.10;1.60;;;;;;;18.91;74.41;102509.47;5013136;28;20032;-81
2021/07/16 08:56:57;;;;;;;2.75;1.50;;;;;;;19.08;74.33;102522.72;5017773;28;20037;-81
2021/07/16 08:59:23;;;;;;;2.67;1.58;;;;;;;19.16;74.19;102529.09;5019216;28;20037;-81
2021/07/16 09:01:50;;;;;;;3.58;1.60;;;;;;;19.14;74.04;102514.81;5017843;28;20033;-82
2021/07/16 09:04:22;;;;;;;4.80;1.52;;;;;;;19.02;74.51;102518.00;5006774;28;20026;-81
2021/07/16 09:06:57;;;;;;;2.67;1.52;;;;;;;19.09;74.57;102513.50;5009905;28;20022;-80
2021/07/16 09:09:38;;;;;;;2.20;1.60;;;;;;;19.20;74.29;102519.50;5013074;28;20083;-78
2021/07/16 09:12:11;;;;;;;2.47;1.67;;;;;;;19.43;74.01;102519.38;5012937;28;20102;-81
2021/07/16 09:14:37;;;;;;;2.95;1.88;;;;;;;19.55;73.16;102512.38;5012713;28;20026;-81
2021/07/16 09:17:09;;;;;;;3.08;1.92;;;;;;;19.73;73.21;102515.53;4998939;28;20037;-81
2021/07/16 09:19:39;;;;;;;3.33;1.67;;;;;;;19.92;73.23;102524.13;5013170;28;20029;-81
2021/07/16 09:22:04;;;;;;;3.65;2.00;;;;;;;20.06;72.71;102520.50;5012045;28;20033;-80
2021/07/16 09:24:30;;;;;;;4.55;2.10;;;;;;;20.21;71.82;102531.31;5013388;28;20045;-79
2021/07/16 09:26:55;;;;;;;3.78;2.05;;;;;;;20.23;71.75;102520.22;5011627;28;20051;-82
2021/07/16 09:29:31;;;;;;;3.25;1.50;;;;;;;20.19;71.60;102523.34;4994964;28;20128;-81
2021/07/16 09:32:05;;;;;;;2.30;1.50;;;;;;;20.27;71.54;102527.81;4995636;28;20026;-82
2021/07/16 09:34:31;;;;;;;2.60;1.70;;;;;;;20.30;71.21;102516.50;5012253;28;20838;-81
2021/07/16 09:36:57;;;;;;;2.42;1.60;;;;;;;20.55;70.58;102521.53;4995281;28;20025;-82
2021/07/16 09:39:25;;;;;;;2.42;1.77;;;;;;;20.74;69.47;102519.97;5011621;28;20033;-81
2021/07/16 09:41:56;;;;;;;2.42;1.63;;;;;;;21.00;69.13;102533.81;5011779;28;20097;-81
2021/07/16 09:44:32;;;;;;;4.15;1.90;;;;;;;21.17;67.64;102525.25;5011636;28;20052;-82
2021/07/16 09:47:16;;;;;;;2.40;1.50;;;;;;;21.26;67.66;102521.31;5013912;28;20057;-82
2021/07/16 09:49:43;;;;;;;2.70;1.80;;;;;;;21.40;66.73;102520.34;5004129;28;20909;-82
2021/07/16 09:52:17;;;;;;;3.97;1.95;;;;;;;21.50;66.54;102519.94;4995851;28;20049;-82
2021/07/16 09:55:08;;;;;;;2.72;1.80;;;;;;;21.56;66.57;102526.50;5013061;28;20068;-82
2021/07/16 09:57:48;;;;;;;7.10;2.40;;;;;;;21.60;67.35;102533.25;5015850;28;20471;-82
2021/07/16 10:00:18;;;;;;;2.85;1.75;;;;;;;21.69;66.58;102535.56;5020628;28;20091;-82
2021/07/16 10:02:46;;;;;;;2.88;1.80;;;;;;;21.66;66.69;102527.78;5016315;28;20028;-77
2021/07/16 10:05:12;;;;;;;2.60;1.77;;;;;;;21.66;66.75;102536.00;5012521;28;20044;-77
2021/07/16 10:07:39;;;;;;;2.72;1.70;;;;;;;21.67;66.49;102534.97;5012837;28;20048;-77
2021/07/16 10:10:05;;;;;;;3.25;1.90;;;;;;;21.82;66.32;102540.25;5006544;28;20021;-76
2021/07/16 10:12:31;;;;;;;6.20;2.13;;;;;;;22.02;65.64;102533.97;4991611;28;20033;-77
2021/07/16 10:14:57;;;;;;;3.15;1.60;;;;;;;22.17;64.99;102532.72;5008366;28;20030;-78
2021/07/16 10:17:23;;;;;;;2.20;1.50;;;;;;;22.22;65.09;102539.47;5011217;28;20045;-78
2021/07/16 10:19:50;;;;;;;3.17;1.70;;;;;;;22.34;64.65;102541.38;5011748;28;20034;-78
2021/07/16 10:22:15;;;;;;;4.00;1.75;;;;;;;22.38;62.96;102531.66;5011415;28;20017;-78
2021/07/16 10:24:41;;;;;;;12.88;2.40;;;;;;;22.41;62.38;102532.31;5011806;28;20034;-78
2021/07/16 10:27:07;;;;;;;2.80;1.58;;;;;;;22.53;63.30;102533.38;5011840;28;20393;-78
2021/07/16 10:29:37;;;;;;;2.67;1.80;;;;;;;22.68;62.98;102539.47;5014867;28;20076;-77
2021/07/16 10:32:02;;;;;;;2.53;1.50;;;;;;;22.75;62.18;102532.06;5009129;28;20038;-77
2021/07/16 10:34:28;;;;;;;2.22;1.60;;;;;;;22.85;61.26;102541.75;5004190;28;20388;-77
2021/07/16 10:37:03;;;;;;;2.40;1.52;;;;;;;23.03;62.08;102536.47;5012522;28;20508;-78
2021/07/16 10:40:04;;;;;;;5.35;1.70;;;;;;;23.43;61.30;102548.13;5008938;28;20026;-77
2021/07/16 10:42:30;;;;;;;3.15;1.75;;;;;;;23.70;59.79;102546.06;5027463;28;20026;-78
2021/07/16 10:44:58;;;;;;;6.15;1.50;;;;;;;23.71;59.92;102541.44;5015578;28;20048;-78
2021/07/16 10:47:51;;;;;;;8.15;1.90;;;;;;;23.32;59.79;102547.97;5008103;28;20026;-78
2021/07/16 10:50:28;;;;;;;2.97;1.88;;;;;;;23.10;60.42;102545.53;5012061;28;20072;-78
2021/07/16 10:52:54;;;;;;;2.92;1.80;;;;;;;23.23;59.74;102537.25;5012555;28;20101;-78
2021/07/16 10:55:40;;;;;;;2.85;1.45;;;;;;;23.34;59.19;102541.22;5010096;28;20072;-76
2021/07/16 10:58:23;;;;;;;2.92;1.67;;;;;;;23.53;59.72;102549.56;5010129;28;20022;-77
2021/07/16 11:00:53;;;;;;;4.07;1.80;;;;;;;23.89;59.02;102552.53;5003016;28;20030;-76
2021/07/16 11:03:20;;;;;;;2.75;1.50;;;;;;;24.03;58.36;102542.31;5008878;28;20014;-76
2021/07/16 11:05:45;;;;;;;5.93;2.10;;;;;;;24.26;58.94;102547.19;5008433;28;20030;-76
2021/07/16 11:08:34;;;;;;;3.50;1.40;;;;;;;24.56;57.86;102547.38;5008907;28;20045;-76
2021/07/16 11:11:05;;;;;;;2.40;1.60;;;;;;;24.77;57.06;102548.03;5003029;28;20052;-76
2021/07/16 11:13:49;;;;;;;7.55;2.10;;;;;;;24.95;58.47;102542.56;5008442;28;20030;-76
2021/07/16 11:16:15;;;;;;;3.65;1.50;;;;;;;25.26;57.69;102542.63;5005034;28;20029;-76
2021/07/16 11:19:12;;;;;;;4.10;2.40;;;;;;;25.58;56.46;102546.03;5007597;28;20091;-76
2021/07/16 11:21:47;;;;;;;2.83;1.50;;;;;;;26.06;54.68;102545.13;5007530;28;20018;-77
2021/07/16 11:24:15;;;;;;;4.45;1.70;;;;;;;26.19;53.26;102550.41;5008338;28;20030;-76